Al Taji, Iraq

12:04 AM AST on July 29, 2014 (GMT +0300)
BAGHDAD INTL (ORBI) Elev 115 ft | 33.26 °N, 44.23 °E | Change Station

Current weather conditions updated 4 minutes ago

Clear
Clear
91 °F
Feels Like 91 °F
N
9
Wind Variable Wind from West

Today is forecast to be Cooler than yesterday.

Today
High -- | Low -- °F
--% Chance of Precip.
Yesterday
High -- | Low -- °F
Precip. -- in
5:13 AM 7:05 PM
Waxing Crescent, 3% visible
Pressure 29.50 in
Visibility -9999.0 miles
Clouds
Heat Index 91 °F
Dew Point 59 °F
Humidity 34%
Rainfall 0.00 in
Snow Depth Not available.
UV Not available.
Pollen Not available.
Air Quality Not available.
Flu Activity Not available.
METAR ORBI 282100Z 28008KT CAVOK 33/15 Q0999 NOSIG

More Conditions Fewer Conditions

Pressure 29.50 in
Visibility -9999.0 miles
Clouds
Heat Index 91 °F
Dew Point 59 °F
Humidity 34%
Rainfall 0.00 in
Snow Depth Not available.
UV Not available.
Pollen Not available.
Air Quality Not available.
Flu Activity Not available.
METAR ORBI 282100Z 28008KT CAVOK 33/15 Q0999 NOSIG

More Conditions Fewer Conditions

10-Day Weather Forecast

Almanac

Astronomy

Jul. 29, 2014 Rise Set
Actual Time 5:13 AM AST 7:05 PM AST
Civil Twilight 4:45 AM AST 7:32 PM AST
Nautical Twilight 4:12 AM AST 8:05 PM AST
Astronomical Twilight 3:37 AM AST 8:41 PM AST
Moon 7:19 AM AST (7/29) 8:17 PM AST (7/29)
Length of Visible Light 14h 47m
Length of Day
13h 52m
Tomorrow will be 1m 27s shorter.
Waxing Crescent, 3% of the Moon is Illuminated
Jul 28
Waxing Crescent
Aug 3
First Quarter
Aug 10
Full
Aug 17
Last Quarter
Aug 25
New

Yesterday's Extremes

Country Highs Country Lows

Community

WunderPhotos

Upload Photos

1,738,490 photos uploaded!

Nearby

Snow Depth

Not available.

Earthquake Activity

City Distance Mag. Time & Date
No recent earthquake activity has been reported nearby.
Minimum magnitude displayed is 2.5.

Coastal Water Temperatures

Place Temperature
No Stations Reporting

Nearby Weather Stations

There are no personal weather stations in this area.